createdAt,value
2023-02-24T00:02:01.887Z,101749.81
2023-02-24T00:04:33.010Z,101799.38
2023-02-24T00:07:02.561Z,101746.47
2023-02-24T00:09:33.597Z,101732.53
2023-02-24T00:12:08.986Z,101787.28
2023-02-24T00:14:40.810Z,101783.97
2023-02-24T00:17:10.764Z,101754.16
2023-02-24T00:19:40.321Z,101764.34
2023-02-24T00:22:10.245Z,101772.44
2023-02-24T00:24:38.889Z,101732.19
2023-02-24T00:27:11.498Z,101741.31
2023-02-24T00:29:42.429Z,101767.19
2023-02-24T00:32:13.959Z,101685.97
2023-02-24T00:34:44.136Z,101761.88
2023-02-24T00:37:12.740Z,101763.44
2023-02-24T00:39:41.875Z,101722.50
2023-02-24T00:42:13.160Z,101696.91
2023-02-24T00:44:46.349Z,101711.25
2023-02-24T00:47:17.938Z,101674.78
2023-02-24T00:49:46.877Z,101709.22
2023-02-24T00:52:17.714Z,101703.22
2023-02-24T00:54:47.739Z,101713.00
2023-02-24T00:57:20.993Z,101688.78
2023-02-24T00:59:51.695Z,101729.16
2023-02-24T01:02:21.364Z,101720.06
2023-02-24T01:04:52.907Z,101702.06
2023-02-24T01:07:21.712Z,101718.00
2023-02-24T01:09:51.940Z,101713.38
2023-02-24T01:12:49.665Z,101648.94
2023-02-24T01:15:20.215Z,101681.41
2023-02-24T01:17:49.307Z,101684.00
2023-02-24T01:20:19.154Z,101670.47
2023-02-24T01:22:50.576Z,101673.47
2023-02-24T01:25:20.655Z,101702.19
2023-02-24T01:27:50.978Z,101699.25
2023-02-24T01:30:20.669Z,101653.34
2023-02-24T01:32:51.241Z,101693.44
2023-02-24T01:35:19.740Z,101690.78
2023-02-24T01:37:49.965Z,101687.28
2023-02-24T01:40:21.642Z,101688.50
2023-02-24T01:42:52.206Z,101684.25
2023-02-24T01:45:28.838Z,101658.41
2023-02-24T01:48:02.049Z,101676.03
2023-02-24T01:50:30.689Z,101667.69
2023-02-24T01:53:04.053Z,101664.72
2023-02-24T01:55:39.103Z,101630.75
2023-02-24T01:58:15.539Z,101652.84
2023-02-24T02:00:47.755Z,101637.91
2023-02-24T02:03:25.685Z,101631.53
2023-02-24T02:05:56.853Z,101611.75
2023-02-24T02:08:25.847Z,101607.16
2023-02-24T02:10:59.429Z,101617.31
2023-02-24T02:13:31.674Z,101620.66
2023-02-24T02:17:01.150Z,101623.84
2023-02-24T02:20:16.152Z,101612.38
2023-02-24T02:23:07.809Z,101610.59
2023-02-24T02:25:57.514Z,101589.34
2023-02-24T02:29:03.086Z,101603.00
2023-02-24T02:31:59.338Z,101592.53
2023-02-24T02:34:46.410Z,101603.41
2023-02-24T02:37:24.708Z,101572.63
2023-02-24T02:40:02.340Z,101568.16
2023-02-24T02:42:42.113Z,101594.69
2023-02-24T02:45:14.765Z,101543.47
2023-02-24T02:47:50.600Z,101586.00
2023-02-24T02:50:27.000Z,101584.34
2023-02-24T02:52:59.548Z,101567.34
2023-02-24T02:55:37.500Z,101555.84
2023-02-24T02:58:11.570Z,101544.38
2023-02-24T03:00:51.373Z,101527.72
2023-02-24T03:03:20.921Z,101579.78
2023-02-24T03:05:56.210Z,101551.53
2023-02-24T03:08:29.768Z,101529.72
2023-02-24T03:11:05.211Z,101551.19
2023-02-24T03:13:41.104Z,101537.41
2023-02-24T03:16:12.324Z,101511.41
2023-02-24T03:18:46.002Z,101514.22
2023-02-24T03:21:23.063Z,101503.19
2023-02-24T03:23:53.851Z,101553.69
2023-02-24T03:26:31.378Z,101548.34
2023-02-24T03:29:10.997Z,101549.22
2023-02-24T03:31:46.574Z,101500.16
2023-02-24T03:34:20.708Z,101538.56
2023-02-24T03:36:50.714Z,101501.16
2023-02-24T03:39:19.249Z,101536.38
2023-02-24T03:42:16.974Z,101528.88
2023-02-24T03:44:45.590Z,101481.41
2023-02-24T03:47:15.944Z,101501.53
2023-02-24T03:49:45.468Z,101519.31
2023-02-24T03:52:29.692Z,101473.28
2023-02-24T03:55:16.959Z,101491.59
2023-02-24T03:58:01.142Z,101487.63
2023-02-24T04:00:42.796Z,101463.06
2023-02-24T04:03:27.522Z,101468.91
2023-02-24T04:06:14.121Z,101478.00
2023-02-24T04:08:52.259Z,101446.44
2023-02-24T04:11:29.076Z,101473.94
2023-02-24T04:14:06.462Z,101447.22
2023-02-24T04:16:43.145Z,101496.09
2023-02-24T04:19:27.684Z,101480.44
2023-02-24T04:21:57.482Z,101447.69
2023-02-24T04:24:33.806Z,101479.66
2023-02-24T04:27:06.491Z,101496.47
2023-02-24T04:29:48.879Z,101483.78
2023-02-24T04:32:25.875Z,101478.84
2023-02-24T04:34:55.264Z,101428.16
2023-02-24T04:37:23.992Z,101474.41
2023-02-24T04:39:55.312Z,101476.19
2023-02-24T04:42:29.494Z,101442.63
2023-02-24T04:44:58.610Z,101468.13
2023-02-24T04:47:29.106Z,101467.91
2023-02-24T04:49:57.461Z,101451.66
2023-02-24T04:52:25.831Z,101463.31
2023-02-24T04:54:55.621Z,101403.94
2023-02-24T04:57:25.102Z,101453.31
2023-02-24T04:59:54.359Z,101444.78
2023-02-24T05:02:22.706Z,101423.91
2023-02-24T05:04:51.212Z,101421.25
2023-02-24T05:07:22.538Z,101424.25
2023-02-24T05:09:50.920Z,101420.19
2023-02-24T05:12:21.273Z,101425.03
2023-02-24T05:14:49.864Z,101344.88
2023-02-24T05:17:18.801Z,101418.19
2023-02-24T05:20:04.579Z,101355.78
2023-02-24T05:22:32.993Z,101366.44
2023-02-24T05:25:01.415Z,101396.34
2023-02-24T05:27:31.139Z,101400.03
2023-02-24T05:29:59.494Z,101399.25
2023-02-24T05:32:28.026Z,101396.41
2023-02-24T05:34:56.406Z,101349.84
2023-02-24T05:37:25.191Z,101384.13
2023-02-24T05:39:57.240Z,101390.47
2023-02-24T05:42:25.686Z,101388.84
2023-02-24T05:44:55.430Z,101358.78
2023-02-24T05:47:25.332Z,101379.63
2023-02-24T05:49:56.934Z,101376.41
2023-02-24T05:52:25.665Z,101360.50
2023-02-24T05:54:55.094Z,101298.69
2023-02-24T05:57:25.813Z,101292.81
2023-02-24T05:59:56.372Z,101296.44
2023-02-24T06:02:29.281Z,101304.53
2023-02-24T06:04:58.915Z,101341.16
2023-02-24T06:07:29.603Z,101306.13
2023-02-24T06:10:00.259Z,101339.63
2023-02-24T06:12:30.733Z,101342.72
2023-02-24T06:15:02.670Z,101327.84
2023-02-24T06:17:31.006Z,101306.31
2023-02-24T06:19:59.819Z,101296.28
2023-02-24T06:22:28.869Z,101197.47
2023-02-24T06:24:57.375Z,101260.66
2023-02-24T06:27:25.866Z,101304.19
2023-02-24T06:29:56.712Z,101304.56
2023-02-24T06:32:28.040Z,101302.38
2023-02-24T06:34:57.545Z,101276.34
2023-02-24T06:37:26.195Z,101295.88
2023-02-24T06:39:54.733Z,101301.03
2023-02-24T06:42:23.304Z,101287.78
2023-02-24T06:44:51.867Z,101290.16
2023-02-24T06:47:22.654Z,101261.38
2023-02-24T06:49:52.609Z,101255.09
2023-02-24T06:52:21.215Z,101225.38
2023-02-24T06:54:52.420Z,101243.03
2023-02-24T06:57:20.895Z,101253.91
2023-02-24T06:59:50.926Z,101191.97
2023-02-24T07:02:19.413Z,101248.00
2023-02-24T07:04:48.236Z,101241.13
2023-02-24T07:07:18.971Z,101245.19
2023-02-24T07:09:47.472Z,101222.13
2023-02-24T07:12:21.019Z,101211.97
2023-02-24T07:14:50.692Z,101231.91
2023-02-24T07:17:20.011Z,101198.50
2023-02-24T07:19:48.435Z,101251.06
2023-02-24T07:22:25.207Z,101248.28
2023-02-24T07:25:00.435Z,101246.50
2023-02-24T07:27:29.065Z,101241.28
2023-02-24T07:29:59.199Z,101197.56
2023-02-24T07:32:28.043Z,101190.38
2023-02-24T07:34:56.951Z,101236.41
2023-02-24T07:37:31.621Z,101234.19
2023-02-24T07:40:00.183Z,101217.63
2023-02-24T07:42:30.685Z,101226.94
2023-02-24T07:44:59.112Z,101198.84
2023-02-24T07:47:27.647Z,101215.31
2023-02-24T07:49:56.074Z,101189.50
2023-02-24T07:52:25.975Z,101205.25
2023-02-24T07:54:55.337Z,101195.59
2023-02-24T07:57:25.367Z,101187.44
2023-02-24T07:59:56.349Z,101093.34
2023-02-24T08:02:35.868Z,101114.94
2023-02-24T08:05:09.377Z,101083.94
2023-02-24T08:07:40.239Z,101177.38
2023-02-24T08:10:14.129Z,101165.66
2023-02-24T08:12:43.762Z,101167.72
2023-02-24T08:15:24.241Z,101168.97
2023-02-24T08:17:59.753Z,101131.94
2023-02-24T08:20:36.186Z,101093.16
2023-02-24T08:23:08.842Z,101157.03
2023-02-24T08:25:37.306Z,101142.94
2023-02-24T08:28:11.440Z,101153.31
2023-02-24T08:30:48.523Z,101147.00
2023-02-24T08:33:23.365Z,101123.78
2023-02-24T08:36:01.247Z,101083.91
2023-02-24T08:38:45.005Z,101139.19
2023-02-24T08:41:18.126Z,101109.97
2023-02-24T08:43:48.303Z,101085.25
2023-02-24T08:46:21.192Z,101115.31
2023-02-24T08:48:55.772Z,101040.84
2023-02-24T08:51:28.896Z,101091.19
2023-02-24T08:54:03.189Z,101065.78
2023-02-24T08:56:35.390Z,101104.69
2023-02-24T08:59:06.685Z,101077.75
2023-02-24T09:01:39.137Z,101022.09
2023-02-24T09:04:11.494Z,101030.88
2023-02-24T09:06:45.037Z,101084.25
2023-02-24T09:09:21.133Z,101082.16
2023-02-24T09:11:56.142Z,101045.31
2023-02-24T09:14:28.981Z,101060.41
2023-02-24T09:17:11.684Z,101050.31
2023-02-24T09:24:34.987Z,101048.44
2023-02-24T09:27:04.522Z,101059.00
2023-02-24T09:29:36.063Z,101040.53
2023-02-24T09:32:07.707Z,101014.66
2023-02-24T09:34:44.136Z,101053.00
2023-02-24T09:37:25.023Z,101036.13
2023-02-24T09:40:13.317Z,101019.00
2023-02-24T09:42:47.350Z,101038.31
2023-02-24T09:45:33.108Z,101038.06
2023-02-24T09:48:17.507Z,101030.38
2023-02-24T09:51:04.511Z,101008.72
2023-02-24T09:53:41.896Z,101037.22
2023-02-24T09:56:22.194Z,101022.06
2023-02-24T09:58:58.722Z,101018.34
2023-02-24T10:01:46.791Z,101040.50
2023-02-24T10:04:54.052Z,100990.81
2023-02-24T10:07:38.498Z,101010.50
2023-02-24T10:10:28.419Z,101030.28
2023-02-24T10:13:13.253Z,100988.97
2023-02-24T10:16:06.242Z,101036.03
2023-02-24T10:18:44.578Z,101012.69
2023-02-24T10:21:30.904Z,101016.25
2023-02-24T10:24:14.514Z,100952.72
2023-02-24T10:27:00.648Z,100977.63
2023-02-24T10:30:01.228Z,100996.75
2023-02-24T10:32:42.787Z,100967.19
2023-02-24T10:35:17.649Z,100985.28
2023-02-24T10:37:46.815Z,100994.94
2023-02-24T10:40:26.709Z,100991.19
2023-02-24T10:43:10.529Z,100992.69
2023-02-24T10:45:45.524Z,100967.50
2023-02-24T10:48:40.147Z,100957.41
2023-02-24T10:51:20.505Z,100988.31
2023-02-24T10:54:10.205Z,100969.06
2023-02-24T10:56:44.833Z,100983.13
2023-02-24T10:59:41.360Z,100992.63
2023-02-24T11:02:35.210Z,100987.91
2023-02-24T11:05:24.819Z,100978.53
2023-02-24T11:08:09.589Z,100987.69
2023-02-24T11:10:53.356Z,100968.13
2023-02-24T11:13:39.964Z,100969.34
2023-02-24T11:16:28.238Z,100940.53
2023-02-24T11:18:59.038Z,100982.69
2023-02-24T11:21:29.131Z,100982.72
2023-02-24T11:24:03.007Z,100958.41
2023-02-24T11:26:37.825Z,100928.63
2023-02-24T11:29:45.421Z,100977.03
2023-02-24T11:32:38.990Z,100951.88
2023-02-24T11:35:20.874Z,100941.19
2023-02-24T11:38:03.247Z,100991.53
2023-02-24T11:40:38.547Z,100975.72
2023-02-24T11:43:13.942Z,100982.38
2023-02-24T11:45:48.444Z,100948.50
2023-02-24T11:48:22.598Z,100928.00
2023-02-24T11:50:57.466Z,100934.41
2023-02-24T11:53:31.255Z,100957.13
2023-02-24T11:56:05.921Z,100942.91
2023-02-24T11:58:42.690Z,100891.31
2023-02-24T12:01:19.728Z,100959.19
2023-02-24T12:03:58.046Z,100914.66
2023-02-24T12:06:37.760Z,100953.47
2023-02-24T12:09:14.551Z,100921.56
2023-02-24T12:11:55.538Z,100939.69
2023-02-24T12:14:34.655Z,100942.31
2023-02-24T12:17:18.038Z,100928.63
2023-02-24T12:19:58.884Z,100906.16
2023-02-24T12:22:39.971Z,100920.53
2023-02-24T12:25:15.029Z,100921.56
2023-02-24T12:28:02.027Z,100887.38
2023-02-24T12:30:57.959Z,100936.19
2023-02-24T12:33:58.167Z,100917.44
2023-02-24T12:36:55.183Z,100910.97
2023-02-24T12:39:32.190Z,100919.09
2023-02-24T12:42:18.739Z,100896.34
2023-02-24T12:44:55.777Z,100910.59
2023-02-24T12:47:38.664Z,100885.25
2023-02-24T12:50:31.084Z,100877.41
2023-02-24T12:53:12.026Z,100904.28
2023-02-24T12:55:53.182Z,100872.84
2023-02-24T12:58:26.384Z,100866.63
2023-02-24T13:01:06.917Z,100885.03
2023-02-24T13:03:57.779Z,100889.63
2023-02-24T13:06:41.798Z,100887.91
2023-02-24T13:09:22.744Z,100880.44
2023-02-24T13:12:01.873Z,100870.97
2023-02-24T13:14:34.031Z,100831.41
2023-02-24T13:17:17.483Z,100840.84
2023-02-24T13:19:48.118Z,100852.03
2023-02-24T13:22:31.078Z,100843.19
2023-02-24T13:25:13.720Z,100832.97
2023-02-24T13:27:45.132Z,100846.66
2023-02-24T13:30:32.188Z,100839.19
2023-02-24T13:33:08.411Z,100808.13
2023-02-24T13:35:38.254Z,100834.88
2023-02-24T13:38:24.911Z,100831.63
2023-02-24T13:40:53.746Z,100774.13
2023-02-24T13:43:30.965Z,100808.75
2023-02-24T13:46:04.760Z,100807.22
2023-02-24T13:49:01.968Z,100812.41
2023-02-24T13:51:59.667Z,100811.72
2023-02-24T13:55:06.051Z,100806.59
2023-02-24T13:58:32.774Z,100815.75
2023-02-24T14:01:14.253Z,100817.56
2023-02-24T14:03:47.505Z,100810.53
2023-02-24T14:06:23.804Z,100788.41
2023-02-24T14:08:56.451Z,100806.19
2023-02-24T14:11:29.490Z,100818.53
2023-02-24T14:13:59.257Z,100789.78
2023-02-24T14:16:35.837Z,100796.78
2023-02-24T14:19:05.060Z,100815.91
2023-02-24T14:21:35.200Z,100773.63
2023-02-24T14:24:11.930Z,100762.78
2023-02-24T14:26:45.970Z,100794.78
2023-02-24T14:29:18.795Z,100763.69
2023-02-24T14:31:52.424Z,100758.81
2023-02-24T14:34:25.139Z,100746.34
2023-02-24T14:36:57.144Z,100755.91
2023-02-24T14:39:29.404Z,100752.75
2023-02-24T14:42:12.795Z,100790.66
2023-02-24T14:44:44.187Z,100772.56
2023-02-24T14:47:17.167Z,100769.28
2023-02-24T14:49:55.811Z,100786.13
2023-02-24T14:52:35.773Z,100788.38
2023-02-24T14:55:09.008Z,100763.94
2023-02-24T14:57:45.155Z,100772.53
2023-02-24T15:00:23.854Z,100764.50
2023-02-24T15:03:03.492Z,100783.03
2023-02-24T15:05:32.443Z,100786.59
2023-02-24T15:08:02.897Z,100797.44
2023-02-24T15:10:33.027Z,100792.19
2023-02-24T15:13:12.877Z,100784.78
2023-02-24T15:15:42.769Z,100776.53
2023-02-24T15:18:24.768Z,100779.72
2023-02-24T15:21:02.322Z,100767.56
2023-02-24T15:23:34.052Z,100763.31
2023-02-24T15:26:04.602Z,100748.19
2023-02-24T15:28:37.627Z,100742.22
2023-02-24T15:31:11.531Z,100750.53
2023-02-24T15:33:44.136Z,100752.09
2023-02-24T15:36:19.468Z,100733.41
2023-02-24T15:38:52.625Z,100777.53
2023-02-24T15:41:21.076Z,100776.28
2023-02-24T15:43:53.118Z,100766.44
2023-02-24T15:46:29.713Z,100761.66
2023-02-24T15:49:03.343Z,100769.84
2023-02-24T15:51:39.390Z,100765.91
2023-02-24T15:54:12.757Z,100749.03
2023-02-24T15:56:42.754Z,100786.00
2023-02-24T15:59:14.741Z,100755.31
2023-02-24T16:01:43.110Z,100766.97
2023-02-24T16:04:13.178Z,100779.19
2023-02-24T16:06:54.722Z,100758.97
2023-02-24T16:09:32.379Z,100775.78
2023-02-24T16:12:03.720Z,100780.06
2023-02-24T16:14:33.455Z,100781.78
2023-02-24T16:17:10.637Z,100765.91
2023-02-24T16:19:40.489Z,100781.09
2023-02-24T16:22:11.058Z,100780.47
2023-02-24T16:24:39.418Z,100789.81
2023-02-24T16:27:07.781Z,100779.50
2023-02-24T16:29:36.119Z,100781.56
2023-02-24T16:32:05.102Z,100777.63
2023-02-24T16:34:33.592Z,100772.66
2023-02-24T16:37:03.646Z,100784.03
2023-02-24T16:39:32.095Z,100776.72
2023-02-24T16:42:06.146Z,100780.19
2023-02-24T16:44:34.680Z,100788.53
2023-02-24T16:47:03.190Z,100787.34
2023-02-24T16:49:31.771Z,100780.88
2023-02-24T16:52:00.319Z,100797.69
2023-02-24T16:54:30.142Z,100807.88
2023-02-24T16:56:58.866Z,100790.97
2023-02-24T16:59:27.457Z,100791.03
2023-02-24T17:01:56.462Z,100801.09
2023-02-24T17:04:25.846Z,100781.56
2023-02-24T17:06:54.216Z,100810.38
2023-02-24T17:09:23.402Z,100819.16
2023-02-24T17:11:53.397Z,100814.69
2023-02-24T17:14:22.544Z,100807.69
2023-02-24T17:16:50.939Z,100817.94
2023-02-24T17:19:19.638Z,100813.84
2023-02-24T17:21:48.035Z,100816.63
2023-02-24T17:24:17.988Z,100815.06
2023-02-24T17:26:46.894Z,100814.00
2023-02-24T17:29:16.708Z,100823.66
2023-02-24T17:31:45.269Z,100817.22
2023-02-24T17:34:13.772Z,100831.97
2023-02-24T17:36:42.090Z,100806.84
2023-02-24T17:39:10.976Z,100812.00
2023-02-24T17:41:39.401Z,100801.97
2023-02-24T17:44:07.848Z,100830.16
2023-02-24T17:46:37.631Z,100833.88
2023-02-24T17:49:06.186Z,100849.72
2023-02-24T17:51:34.682Z,100826.31
2023-02-24T17:54:03.103Z,100804.34
2023-02-24T17:56:31.734Z,100823.72
2023-02-24T17:59:01.098Z,100839.28
2023-02-24T18:01:29.951Z,100858.13
2023-02-24T18:03:59.808Z,100858.44
2023-02-24T18:06:28.224Z,100865.16
2023-02-24T18:08:56.618Z,100846.88
2023-02-24T18:11:25.139Z,100866.56
2023-02-24T18:13:55.310Z,100840.69
2023-02-24T18:16:24.152Z,100863.84
2023-02-24T18:18:52.839Z,100853.34
2023-02-24T18:21:23.061Z,100845.28
2023-02-24T18:23:51.665Z,100866.28
2023-02-24T18:26:23.729Z,100836.81
2023-02-24T18:28:53.872Z,100849.78
2023-02-24T18:31:25.287Z,100882.00
2023-02-24T18:33:54.957Z,100845.09
2023-02-24T18:36:25.208Z,100879.16
2023-02-24T18:38:54.062Z,100868.88
2023-02-24T18:41:24.401Z,100843.81
2023-02-24T18:43:55.478Z,100872.44
2023-02-24T18:46:25.584Z,100860.44
2023-02-24T18:48:54.302Z,100872.63
2023-02-24T18:51:29.071Z,100861.16
2023-02-24T18:54:00.494Z,100864.31
2023-02-24T18:56:31.248Z,100844.91
2023-02-24T18:59:01.455Z,100876.72
2023-02-24T19:01:32.904Z,100905.44
2023-02-24T19:04:02.909Z,100841.88
2023-02-24T19:06:34.825Z,100903.41
2023-02-24T19:09:09.708Z,100900.72
2023-02-24T19:11:39.317Z,100914.91
2023-02-24T19:14:09.102Z,100887.34
2023-02-24T19:16:38.928Z,100877.84
2023-02-24T19:19:07.596Z,100919.28
2023-02-24T19:21:37.447Z,100919.47
2023-02-24T19:24:08.227Z,100902.09
2023-02-24T19:26:37.078Z,100800.09
2023-02-24T19:29:05.658Z,100931.06
2023-02-24T19:31:35.065Z,100897.28
2023-02-24T19:34:06.922Z,100908.03
2023-02-24T19:36:38.750Z,100879.91
2023-02-24T19:39:11.512Z,100866.25
2023-02-24T19:41:40.053Z,100854.38
2023-02-24T19:44:10.063Z,100825.56
2023-02-24T19:46:39.018Z,100896.66
2023-02-24T19:49:07.828Z,100888.22
2023-02-24T19:51:38.311Z,100909.25
2023-02-24T19:54:07.215Z,100863.06
2023-02-24T19:56:38.054Z,100922.34
2023-02-24T19:59:08.893Z,100920.03
2023-02-24T20:01:37.426Z,100919.34
2023-02-24T20:04:08.267Z,100923.34
2023-02-24T20:06:40.815Z,100939.47
2023-02-24T20:09:15.639Z,100894.44
2023-02-24T20:11:45.979Z,100938.53
2023-02-24T20:14:16.608Z,100902.91
2023-02-24T20:16:45.835Z,100913.75
2023-02-24T20:19:17.362Z,100907.06
2023-02-24T20:21:47.479Z,100903.44
2023-02-24T20:24:17.634Z,100910.78
2023-02-24T20:26:49.595Z,100924.63
2023-02-24T20:29:20.784Z,100902.66
2023-02-24T20:31:49.818Z,100903.50
2023-02-24T20:34:18.405Z,100926.94
2023-02-24T20:36:48.479Z,100950.94
2023-02-24T20:39:17.091Z,100948.41
2023-02-24T20:41:45.558Z,100925.38
2023-02-24T20:44:13.870Z,100915.00
2023-02-24T20:46:42.808Z,100932.56
2023-02-24T20:49:14.945Z,100925.31
2023-02-24T20:51:44.350Z,100927.97
2023-02-24T20:54:15.243Z,100916.19
2023-02-24T20:56:45.931Z,100957.09
2023-02-24T20:59:17.071Z,100956.66
2023-02-24T21:01:48.547Z,100918.13
2023-02-24T21:04:20.592Z,100792.59
2023-02-24T21:06:52.348Z,100866.91
2023-02-24T21:09:22.366Z,100748.03
2023-02-24T21:11:54.127Z,100775.22
2023-02-24T21:14:23.227Z,100964.19
2023-02-24T21:16:51.708Z,100949.53
2023-02-24T21:19:20.419Z,100675.16
2023-02-24T21:21:49.637Z,100864.69
2023-02-24T21:24:18.397Z,100721.78
2023-02-24T21:26:48.515Z,100927.03
2023-02-24T21:29:17.701Z,100912.56
2023-02-24T21:31:46.858Z,100701.94
2023-02-24T21:34:17.512Z,100979.34
2023-02-24T21:36:47.289Z,100955.84
2023-02-24T21:39:15.709Z,100980.47
2023-02-24T21:41:44.709Z,100952.13
2023-02-24T21:44:17.191Z,100977.63
2023-02-24T21:46:46.629Z,100949.75
2023-02-24T21:49:15.274Z,100983.84
2023-02-24T21:51:43.703Z,100978.84
2023-02-24T21:54:12.600Z,100975.19
2023-02-24T21:56:41.371Z,100965.69
2023-02-24T21:59:11.203Z,100971.41
2023-02-24T22:01:43.371Z,100935.09
2023-02-24T22:04:14.509Z,100949.75
2023-02-24T22:06:44.861Z,100960.63
2023-02-24T22:09:15.693Z,100887.16
2023-02-24T22:11:44.178Z,100864.94
2023-02-24T22:14:15.062Z,100981.63
2023-02-24T22:16:45.488Z,100880.06
2023-02-24T22:19:14.799Z,100939.94
2023-02-24T22:21:43.364Z,100782.09
2023-02-24T22:24:15.120Z,100835.66
2023-02-24T22:26:44.266Z,100896.38
2023-02-24T22:29:13.332Z,100981.59
2023-02-24T22:31:47.608Z,101009.13
2023-02-24T22:34:17.707Z,101009.44
2023-02-24T22:36:46.473Z,100967.59
2023-02-24T22:39:16.751Z,101020.16
2023-02-24T22:41:46.850Z,100905.06
2023-02-24T22:44:19.299Z,100896.69
2023-02-24T22:46:50.433Z,101008.72
2023-02-24T22:49:18.998Z,101022.22
2023-02-24T22:51:47.711Z,100976.78
2023-02-24T22:54:16.341Z,101021.53
2023-02-24T22:56:44.960Z,101030.72
2023-02-24T22:59:15.928Z,101029.44
2023-02-24T23:01:45.225Z,101008.06
2023-02-24T23:04:18.210Z,101000.31
2023-02-24T23:06:47.999Z,100988.59
2023-02-24T23:09:19.780Z,101022.25
2023-02-24T23:11:49.412Z,100990.13
2023-02-24T23:14:18.169Z,100936.34
2023-02-24T23:16:48.413Z,100981.44
2023-02-24T23:19:21.276Z,100973.19
2023-02-24T23:21:52.660Z,101010.69
2023-02-24T23:24:24.017Z,101008.88
2023-02-24T23:26:57.237Z,101023.97
2023-02-24T23:29:27.819Z,100994.28
2023-02-24T23:31:56.628Z,101031.94
2023-02-24T23:34:28.163Z,101033.97
2023-02-24T23:36:56.688Z,101033.09
2023-02-24T23:39:25.146Z,101027.78
2023-02-24T23:41:57.573Z,101007.75
2023-02-24T23:44:26.330Z,100954.22
2023-02-24T23:46:54.938Z,101026.72
2023-02-24T23:49:23.373Z,101032.81
2023-02-24T23:51:53.142Z,101042.94
2023-02-24T23:54:21.572Z,101046.09
2023-02-24T23:56:50.368Z,101009.75
2023-02-24T23:59:18.841Z,101036.25
